Time;durP1;ratioP1;P1;durP2;ratioP2;P2;SDS_P1;SDS_P2;PMS_P1;PMS_P2;Temp;Humidity;BMP_temperature;BMP_pressure;BME280_temperature;BME280_humidity;BME280_pressure;Samples;Min_cycle;Max_cycle;Signal;HPM_P1;HPM_P2
2022/10/09 00:00:34;;;;;;;12.55;5.80;;;;;;;5.98;100.00;102373.84;5259397;28;20032;-64
2022/10/09 00:03:06;;;;;;;10.63;5.38;;;;;;;5.95;100.00;102371.31;5258863;28;20029;-63
2022/10/09 00:05:37;;;;;;;14.98;5.95;;;;;;;5.92;100.00;102383.75;5260786;28;20033;-63
2022/10/09 00:08:09;;;;;;;13.32;5.90;;;;;;;5.91;100.00;102377.59;5261676;28;20016;-64
2022/10/09 00:10:42;;;;;;;11.02;6.03;;;;;;;5.92;100.00;102381.09;5257519;28;21178;-64
2022/10/09 00:13:13;;;;;;;13.80;5.88;;;;;;;5.91;100.00;102380.25;5257811;28;20032;-63
2022/10/09 00:15:45;;;;;;;12.57;6.00;;;;;;;5.86;100.00;102387.47;5252895;28;20028;-63
2022/10/09 00:18:17;;;;;;;10.25;6.15;;;;;;;5.86;100.00;102388.31;5258948;28;20085;-63
2022/10/09 00:20:48;;;;;;;12.82;5.82;;;;;;;5.84;100.00;102384.00;5254202;28;20021;-63
2022/10/09 00:23:20;;;;;;;12.02;6.00;;;;;;;5.77;100.00;102383.34;5245444;28;20112;-63
2022/10/09 00:25:53;;;;;;;10.18;5.57;;;;;;;5.77;100.00;102383.34;5252225;28;20017;-64
2022/10/09 00:28:27;;;;;;;14.02;5.78;;;;;;;5.78;100.00;102382.41;5251710;28;20052;-64
2022/10/09 00:30:58;;;;;;;9.32;5.53;;;;;;;5.81;100.00;102386.72;5250798;28;20036;-64
2022/10/09 00:33:29;;;;;;;11.45;6.60;;;;;;;5.84;100.00;102382.22;5250003;28;20024;-63
2022/10/09 00:36:06;;;;;;;10.88;6.28;;;;;;;5.78;100.00;102385.06;5248398;28;20037;-63
2022/10/09 00:38:37;;;;;;;10.35;5.78;;;;;;;5.74;100.00;102385.22;5252224;28;20029;-63
2022/10/09 00:41:14;;;;;;;12.30;6.57;;;;;;;5.63;100.00;102373.16;5253458;28;20024;-63
2022/10/09 00:43:48;;;;;;;11.63;6.03;;;;;;;5.65;100.00;102381.06;5255419;28;20032;-63
2022/10/09 00:46:47;;;;;;;12.02;5.95;;;;;;;5.68;100.00;102376.53;5258519;28;20036;-64
2022/10/09 00:49:27;;;;;;;10.23;5.63;;;;;;;5.60;100.00;102373.28;5266661;28;20029;-64
2022/10/09 00:52:02;;;;;;;9.55;5.45;;;;;;;5.69;100.00;102377.41;5260132;28;20039;-63
2022/10/09 00:54:37;;;;;;;9.55;5.88;;;;;;;5.61;100.00;102376.78;5257665;28;20417;-63
2022/10/09 00:57:09;;;;;;;12.20;6.28;;;;;;;5.65;100.00;102381.91;5258900;28;20510;-63
2022/10/09 00:59:40;;;;;;;12.45;6.07;;;;;;;5.60;100.00;102375.91;5258469;28;20107;-64
2022/10/09 01:02:11;;;;;;;14.95;6.85;;;;;;;5.60;100.00;102372.38;5263819;28;20035;-64
2022/10/09 01:04:43;;;;;;;11.00;6.35;;;;;;;5.63;100.00;102369.66;5258623;28;20033;-64
2022/10/09 01:07:28;;;;;;;14.55;6.65;;;;;;;5.68;100.00;102367.75;5257781;28;20427;-64
2022/10/09 01:10:22;;;;;;;10.52;5.60;;;;;;;5.59;100.00;102370.66;5260735;28;20028;-63
2022/10/09 01:13:12;;;;;;;12.33;5.90;;;;;;;5.56;100.00;102376.94;5245672;28;20029;-64
2022/10/09 01:15:52;;;;;;;11.77;5.38;;;;;;;5.53;100.00;102370.88;5252152;28;20103;-64
2022/10/09 01:18:45;;;;;;;11.80;6.07;;;;;;;5.49;100.00;102372.72;5259242;28;20106;-63
2022/10/09 01:21:30;;;;;;;11.82;5.90;;;;;;;5.53;100.00;102376.16;5258273;28;20505;-63
2022/10/09 01:24:27;;;;;;;12.40;6.00;;;;;;;5.42;100.00;102373.81;5251171;28;20035;-63
2022/10/09 01:27:09;;;;;;;10.70;5.43;;;;;;;5.42;100.00;102382.63;5238581;28;20498;-64
2022/10/09 01:29:47;;;;;;;10.20;5.38;;;;;;;5.43;100.00;102381.72;5250089;28;20037;-63
2022/10/09 01:32:23;;;;;;;11.00;6.00;;;;;;;5.37;100.00;102367.78;5250854;28;20091;-63
2022/10/09 01:34:55;;;;;;;10.63;5.72;;;;;;;5.37;100.00;102370.44;5255945;28;20064;-64
2022/10/09 01:37:29;;;;;;;12.20;6.35;;;;;;;5.32;100.00;102360.00;5251422;28;20077;-64
2022/10/09 01:40:01;;;;;;;13.50;6.45;;;;;;;5.42;100.00;102361.44;5249285;28;20029;-63
2022/10/09 01:42:33;;;;;;;9.85;5.57;;;;;;;5.29;100.00;102358.31;5258155;28;20029;-63
2022/10/09 01:45:05;;;;;;;11.23;5.68;;;;;;;5.19;100.00;102338.31;5239365;28;20032;-63
2022/10/09 01:47:36;;;;;;;10.85;6.05;;;;;;;5.22;100.00;102355.91;5261372;28;20029;-63
2022/10/09 01:50:23;;;;;;;13.88;6.57;;;;;;;5.18;100.00;102348.94;5264709;28;20024;-64
2022/10/09 01:53:00;;;;;;;10.15;5.78;;;;;;;5.09;100.00;102340.38;5265184;28;20049;-63
2022/10/09 01:56:03;;;;;;;11.65;6.05;;;;;;;5.20;100.00;102348.00;5261768;28;20036;-63
2022/10/09 01:58:49;;;;;;;9.93;5.53;;;;;;;5.14;100.00;102349.97;5264959;28;20052;-63
2022/10/09 02:01:33;;;;;;;17.38;6.75;;;;;;;5.09;100.00;102339.53;5264803;28;20432;-63
2022/10/09 02:04:11;;;;;;;9.50;5.72;;;;;;;5.05;100.00;102333.44;5260606;28;20115;-63
2022/10/09 02:06:45;;;;;;;11.90;6.25;;;;;;;5.03;100.00;102329.13;5263782;28;20029;-63
2022/10/09 02:09:17;;;;;;;12.20;6.00;;;;;;;4.97;100.00;102332.81;5261098;28;20032;-63
2022/10/09 02:11:54;;;;;;;13.85;6.07;;;;;;;4.94;100.00;102322.31;5257151;28;20075;-63
2022/10/09 02:14:25;;;;;;;10.82;5.45;;;;;;;4.88;100.00;102331.28;5269425;28;20036;-63
2022/10/09 02:17:03;;;;;;;11.38;6.45;;;;;;;4.93;100.00;102330.28;5258291;28;20111;-63
2022/10/09 02:19:54;;;;;;;9.40;5.65;;;;;;;4.83;100.00;102324.41;5263191;28;20025;-63
2022/10/09 02:22:30;;;;;;;11.73;6.40;;;;;;;4.77;100.00;102314.00;5263921;28;20028;-64
2022/10/09 02:25:05;;;;;;;12.73;7.10;;;;;;;4.78;100.00;102323.69;5264277;28;20073;-64
2022/10/09 02:27:36;;;;;;;14.13;6.28;;;;;;;4.75;100.00;102316.69;5261982;28;20025;-63
2022/10/09 02:30:09;;;;;;;11.52;6.20;;;;;;;4.72;100.00;102316.78;5253286;28;20406;-63
2022/10/09 02:32:40;;;;;;;9.45;6.50;;;;;;;4.70;100.00;102313.31;5261712;28;20028;-64
2022/10/09 02:35:12;;;;;;;12.90;6.70;;;;;;;4.64;100.00;102310.81;5260611;28;20379;-63
2022/10/09 02:37:43;;;;;;;10.43;6.80;;;;;;;4.65;100.00;102315.22;5257273;28;20028;-63
2022/10/09 02:40:14;;;;;;;14.40;6.93;;;;;;;4.63;100.00;102314.41;5259372;28;20025;-63
2022/10/09 02:42:45;;;;;;;11.73;6.35;;;;;;;4.61;100.00;102310.94;5258977;28;20126;-63
2022/10/09 02:45:17;;;;;;;13.57;7.45;;;;;;;4.60;100.00;102312.72;5254898;28;20082;-63
2022/10/09 02:47:48;;;;;;;11.68;7.00;;;;;;;4.54;100.00;102314.66;5257373;28;20067;-63
2022/10/09 02:50:19;;;;;;;13.57;7.15;;;;;;;4.54;100.00;102306.72;5265095;28;20037;-63
2022/10/09 02:52:51;;;;;;;14.32;7.53;;;;;;;4.51;100.00;102310.31;5260465;28;20044;-63
2022/10/09 02:55:22;;;;;;;13.00;7.13;;;;;;;4.50;100.00;102316.50;5274221;28;20544;-63
2022/10/09 02:57:53;;;;;;;12.18;7.18;;;;;;;4.49;100.00;102310.34;5256605;28;20529;-63
2022/10/09 03:00:25;;;;;;;16.38;7.30;;;;;;;4.53;100.00;102311.16;5260220;28;20476;-63
2022/10/09 03:02:56;;;;;;;11.50;6.90;;;;;;;4.54;100.00;102306.72;5254169;28;20364;-63
2022/10/09 03:05:27;;;;;;;12.18;7.13;;;;;;;4.51;100.00;102311.19;5260995;28;20109;-63
2022/10/09 03:07:58;;;;;;;14.40;7.55;;;;;;;4.70;100.00;102308.03;5264178;28;20024;-63
2022/10/09 03:10:30;;;;;;;13.38;7.40;;;;;;;4.61;100.00;102295.94;5259251;28;20091;-63
2022/10/09 03:13:01;;;;;;;12.80;7.03;;;;;;;4.68;100.00;102304.56;5266602;28;20037;-63
2022/10/09 03:15:33;;;;;;;17.30;7.63;;;;;;;4.59;100.00;102299.53;5259163;28;20028;-63
2022/10/09 03:18:05;;;;;;;16.77;7.35;;;;;;;4.56;100.00;102297.81;5259116;28;20661;-63
2022/10/09 03:20:37;;;;;;;13.18;7.60;;;;;;;4.63;100.00;102302.03;5261045;28;20024;-63
2022/10/09 03:23:08;;;;;;;12.73;7.32;;;;;;;4.59;100.00;102296.91;5262838;28;20549;-63
2022/10/09 03:25:40;;;;;;;14.70;7.43;;;;;;;4.57;100.00;102290.78;5270514;28;20026;-63
2022/10/09 03:28:11;;;;;;;13.05;7.13;;;;;;;4.60;100.00;102298.63;5268647;28;20490;-63
2022/10/09 03:30:42;;;;;;;12.00;7.10;;;;;;;4.54;100.00;102293.50;5259655;28;20036;-63
2022/10/09 03:33:13;;;;;;;12.30;7.15;;;;;;;4.51;100.00;102292.69;5257718;28;20071;-63
2022/10/09 03:35:46;;;;;;;13.68;7.43;;;;;;;4.48;100.00;102300.69;5258760;28;20481;-63
2022/10/09 03:38:17;;;;;;;12.05;7.40;;;;;;;4.45;100.00;102294.59;5255687;28;20069;-63
2022/10/09 03:40:48;;;;;;;12.48;6.75;;;;;;;4.47;100.00;102285.75;5253607;28;21526;-63
2022/10/09 03:43:20;;;;;;;12.32;7.47;;;;;;;4.48;100.00;102286.59;5253310;28;20029;-64
2022/10/09 03:45:51;;;;;;;15.40;7.50;;;;;;;4.41;100.00;102291.22;5258548;28;20028;-64
2022/10/09 03:48:24;;;;;;;14.00;7.30;;;;;;;4.40;100.00;102283.31;5253240;28;20139;-63
2022/10/09 03:50:55;;;;;;;13.70;7.50;;;;;;;4.39;100.00;102287.75;5261228;28;20497;-63
2022/10/09 03:53:26;;;;;;;14.10;7.45;;;;;;;4.37;100.00;102281.59;5262059;28;20071;-64
2022/10/09 03:55:58;;;;;;;13.00;7.22;;;;;;;4.35;100.00;102288.72;5253214;28;20029;-63
2022/10/09 03:58:29;;;;;;;14.23;7.13;;;;;;;4.32;100.00;102291.47;5249144;28;20549;-63
2022/10/09 04:01:00;;;;;;;15.68;7.28;;;;;;;4.36;100.00;102290.47;5249906;28;20939;-63
2022/10/09 04:03:31;;;;;;;11.70;7.70;;;;;;;4.34;100.00;102297.56;5250922;28;20036;-63
2022/10/09 04:06:03;;;;;;;15.20;7.90;;;;;;;4.32;100.00;102304.66;5253558;28;20036;-63
2022/10/09 04:08:34;;;;;;;11.77;6.95;;;;;;;4.29;100.00;102310.03;5247249;28;20029;-63
2022/10/09 04:11:05;;;;;;;11.23;7.25;;;;;;;4.30;100.00;102298.56;5252394;28;20031;-64
2022/10/09 04:13:37;;;;;;;11.70;7.65;;;;;;;4.25;100.00;102300.44;5253058;28;20029;-65
2022/10/09 04:16:11;;;;;;;17.55;8.82;;;;;;;4.35;100.00;102294.00;5252412;28;20032;-63
2022/10/09 04:18:43;;;;;;;11.68;6.85;;;;;;;4.30;100.00;102290.63;5252574;28;20553;-63
2022/10/09 04:21:14;;;;;;;11.65;7.53;;;;;;;4.26;100.00;102294.28;5261429;28;20025;-63
2022/10/09 04:23:46;;;;;;;13.55;7.30;;;;;;;4.23;100.00;102295.19;5258099;28;20030;-63
2022/10/09 04:26:17;;;;;;;13.48;7.32;;;;;;;4.21;100.00;102294.38;5260726;28;20021;-63
2022/10/09 04:28:48;;;;;;;15.85;7.18;;;;;;;4.20;100.00;102291.75;5250770;28;20037;-63
2022/10/09 04:31:20;;;;;;;11.50;7.40;;;;;;;4.18;100.00;102296.22;5247744;28;20120;-63
2022/10/09 04:33:54;;;;;;;13.55;7.60;;;;;;;4.17;100.00;102286.59;5258105;28;20371;-63
2022/10/09 04:36:25;;;;;;;10.35;7.07;;;;;;;4.12;100.00;102286.69;5257259;28;20356;-63
2022/10/09 04:38:56;;;;;;;11.20;7.22;;;;;;;4.10;100.00;102283.22;5251796;28;20029;-63
2022/10/09 04:41:28;;;;;;;14.75;7.10;;;;;;;4.03;100.00;102282.53;5253324;28;20110;-63
2022/10/09 04:43:59;;;;;;;14.23;7.35;;;;;;;4.04;100.00;102289.53;5254697;28;20070;-63
2022/10/09 04:46:30;;;;;;;12.52;7.00;;;;;;;4.04;100.00;102284.25;5254690;28;20040;-63
2022/10/09 04:49:02;;;;;;;13.80;6.88;;;;;;;4.05;100.00;102285.13;5252949;28;20091;-64
2022/10/09 04:51:33;;;;;;;13.27;7.10;;;;;;;4.01;100.00;102279.06;5260478;28;20535;-63
2022/10/09 04:54:04;;;;;;;13.23;7.30;;;;;;;4.10;100.00;102280.59;5255783;28;20045;-64
2022/10/09 04:56:36;;;;;;;11.80;7.35;;;;;;;4.02;100.00;102277.28;5265419;28;20036;-63
2022/10/09 04:59:07;;;;;;;15.38;7.50;;;;;;;4.06;100.00;102282.44;5253531;28;20434;-63
2022/10/09 05:01:39;;;;;;;14.48;8.20;;;;;;;4.03;100.00;102271.09;5246960;28;20758;-64
2022/10/09 05:04:11;;;;;;;17.95;8.35;;;;;;;3.93;100.00;102267.81;5255627;28;20036;-63
2022/10/09 05:06:42;;;;;;;12.40;7.82;;;;;;;3.92;100.00;102266.09;5254660;28;20128;-63
2022/10/09 05:09:13;;;;;;;13.75;7.28;;;;;;;3.94;100.00;102264.28;5257240;28;20037;-63
2022/10/09 05:11:44;;;;;;;14.75;8.13;;;;;;;3.91;100.00;102259.94;5260862;28;20071;-63
2022/10/09 05:14:16;;;;;;;12.50;8.10;;;;;;;3.83;100.00;102263.69;5259720;28;20029;-63
2022/10/09 05:16:51;;;;;;;10.98;7.35;;;;;;;3.86;100.00;102266.25;5263975;28;20335;-63
2022/10/09 05:19:22;;;;;;;15.57;7.63;;;;;;;3.84;100.00;102255.72;5259021;28;20043;-63
2022/10/09 05:21:54;;;;;;;13.60;7.40;;;;;;;3.84;100.00;102257.50;5272836;28;20025;-63
2022/10/09 05:24:26;;;;;;;13.20;7.70;;;;;;;3.83;100.00;102258.41;5262637;28;20570;-63
2022/10/09 05:26:57;;;;;;;12.15;7.10;;;;;;;3.77;100.00;102248.88;5265179;28;20033;-63
2022/10/09 05:29:28;;;;;;;12.95;7.22;;;;;;;3.76;100.00;102256.81;5258558;28;20153;-63
2022/10/09 05:32:00;;;;;;;13.77;8.05;;;;;;;3.80;100.00;102256.72;5267111;28;20055;-63
2022/10/09 05:34:33;;;;;;;13.52;7.35;;;;;;;3.79;100.00;102252.31;5265611;28;20086;-63
2022/10/09 05:37:04;;;;;;;17.45;7.90;;;;;;;3.79;100.00;102252.31;5261498;28;20055;-63
2022/10/09 05:39:37;;;;;;;11.05;7.18;;;;;;;3.81;100.00;102254.94;5252288;28;20071;-64
2022/10/09 05:42:08;;;;;;;12.48;7.55;;;;;;;3.82;100.00;102254.91;5254186;28;20039;-64
2022/10/09 05:44:39;;;;;;;12.82;7.53;;;;;;;3.84;100.00;102255.72;5257642;28;20412;-63
2022/10/09 05:47:12;;;;;;;13.93;6.95;;;;;;;3.86;100.00;102253.06;5252210;28;20032;-63
2022/10/09 05:49:44;;;;;;;17.40;8.35;;;;;;;3.81;100.00;102250.50;5255093;28;20032;-63
2022/10/09 05:52:15;;;;;;;14.13;9.30;;;;;;;3.83;100.00;102255.75;5255833;28;20255;-63
2022/10/09 05:54:46;;;;;;;17.02;9.63;;;;;;;3.87;100.00;102252.13;5256136;28;20562;-63
2022/10/09 05:57:17;;;;;;;16.17;9.80;;;;;;;3.81;100.00;102252.28;5264943;28;20066;-63
2022/10/09 05:59:49;;;;;;;16.63;9.77;;;;;;;3.86;100.00;102250.41;5256398;28;20033;-63
2022/10/09 06:02:20;;;;;;;16.45;10.10;;;;;;;4.00;100.00;102247.41;5249181;28;20032;-63
2022/10/09 06:04:51;;;;;;;17.63;9.50;;;;;;;3.87;100.00;102246.84;5255248;28;20033;-63
2022/10/09 06:07:22;;;;;;;13.15;8.45;;;;;;;3.92;100.00;102248.47;5252379;28;20040;-63
2022/10/09 06:09:54;;;;;;;12.07;8.25;;;;;;;3.89;100.00;102256.50;5253526;28;20032;-63
2022/10/09 06:12:25;;;;;;;13.82;7.88;;;;;;;3.85;100.00;102246.03;5262060;28;20642;-63
2022/10/09 06:14:56;;;;;;;14.63;7.80;;;;;;;3.85;100.00;102246.03;5260723;28;20064;-63
2022/10/09 06:17:27;;;;;;;12.07;7.40;;;;;;;3.86;100.00;102253.91;5260481;28;20048;-63
2022/10/09 06:19:59;;;;;;;14.73;7.60;;;;;;;3.91;100.00;102256.41;5260438;28;20470;-63
2022/10/09 06:22:30;;;;;;;12.13;7.35;;;;;;;3.86;100.00;102248.63;5262737;28;20032;-63
2022/10/09 06:25:01;;;;;;;15.40;7.65;;;;;;;3.87;100.00;102258.31;5258053;28;20045;-63
2022/10/09 06:27:32;;;;;;;13.20;6.95;;;;;;;3.89;100.00;102250.31;5258875;28;20036;-63
2022/10/09 06:30:04;;;;;;;12.27;6.70;;;;;;;3.89;100.00;102261.78;5256639;28;20051;-63
2022/10/09 06:32:35;;;;;;;12.20;6.60;;;;;;;3.97;100.00;102260.69;5261962;28;20036;-63
2022/10/09 06:35:07;;;;;;;13.07;7.18;;;;;;;3.92;100.00;102256.38;5255134;28;20060;-63
2022/10/09 06:37:38;;;;;;;11.65;6.82;;;;;;;3.95;100.00;102260.75;5255131;28;20036;-63
2022/10/09 06:40:10;;;;;;;16.67;8.90;;;;;;;4.05;100.00;102258.72;5260805;28;20032;-63
2022/10/09 06:42:41;;;;;;;16.13;7.80;;;;;;;4.02;100.00;102262.28;5257604;28;20394;-63
2022/10/09 06:45:12;;;;;;;13.98;8.98;;;;;;;4.04;100.00;102263.13;5258943;28;20032;-63
2022/10/09 06:47:44;;;;;;;13.00;9.13;;;;;;;4.10;100.00;102262.97;5261961;28;20707;-63
2022/10/09 06:50:15;;;;;;;21.02;11.18;;;;;;;4.09;100.00;102266.50;5259524;28;20031;-63
2022/10/09 06:52:47;;;;;;;16.45;9.20;;;;;;;4.10;100.00;102260.34;5260319;28;20048;-63
2022/10/09 06:55:18;;;;;;;17.67;10.10;;;;;;;4.17;100.00;102261.03;5257966;28;20190;-63
2022/10/09 06:57:49;;;;;;;14.52;9.45;;;;;;;4.23;100.00;102252.06;5260115;28;20763;-63
2022/10/09 07:00:21;;;;;;;18.83;9.77;;;;;;;4.29;100.00;102258.03;5258340;28;20678;-64
2022/10/09 07:02:52;;;;;;;16.08;8.88;;;;;;;4.38;100.00;102256.06;5255482;28;20534;-63
2022/10/09 07:05:23;;;;;;;15.50;8.88;;;;;;;4.53;100.00;102254.78;5237287;28;20120;-64
2022/10/09 07:07:55;;;;;;;13.73;8.57;;;;;;;4.54;100.00;102265.28;5256052;28;20198;-63
2022/10/09 07:10:26;;;;;;;15.23;8.70;;;;;;;4.49;100.00;102260.16;5259299;28;20021;-63
2022/10/09 07:12:57;;;;;;;14.05;8.95;;;;;;;4.48;100.00;102265.47;5261984;28;20028;-63
2022/10/09 07:15:28;;;;;;;14.13;8.98;;;;;;;4.56;100.00;102260.81;5260555;28;20863;-63
2022/10/09 07:18:01;;;;;;;15.15;8.65;;;;;;;4.62;100.00;102265.06;5267331;28;20020;-63
2022/10/09 07:20:35;;;;;;;13.10;8.70;;;;;;;4.80;100.00;102261.91;5258045;28;20569;-63
2022/10/09 07:23:06;;;;;;;16.80;10.00;;;;;;;4.73;100.00;102260.34;5243329;28;20390;-63
2022/10/09 07:25:37;;;;;;;15.85;10.00;;;;;;;4.82;100.00;102265.38;5261134;28;20037;-63
2022/10/09 07:28:08;;;;;;;14.52;10.05;;;;;;;4.80;100.00;102259.25;5241259;28;20081;-63
2022/10/09 07:30:40;;;;;;;16.92;10.43;;;;;;;4.80;100.00;102256.63;5262396;28;20036;-63
2022/10/09 07:33:11;;;;;;;20.17;10.65;;;;;;;4.94;100.00;102257.97;5261618;28;20028;-63
2022/10/09 07:35:42;;;;;;;16.45;9.95;;;;;;;4.95;100.00;102257.06;5263309;28;21544;-63
2022/10/09 07:38:14;;;;;;;14.73;10.32;;;;;;;5.07;100.00;102257.56;5261223;28;20608;-63
2022/10/09 07:40:45;;;;;;;18.25;10.45;;;;;;;5.10;100.00;102257.47;5260265;28;20064;-63
2022/10/09 07:43:16;;;;;;;17.80;11.38;;;;;;;5.13;100.00;102250.34;5251922;28;20025;-63
2022/10/09 07:45:48;;;;;;;20.42;11.60;;;;;;;5.28;100.00;102260.44;5254096;28;20047;-63
2022/10/09 07:48:19;;;;;;;16.55;11.52;;;;;;;5.28;100.00;102261.31;5253316;28;20298;-63
2022/10/09 07:50:50;;;;;;;18.70;13.10;;;;;;;5.41;100.00;102255.66;5256783;28;20028;-64
2022/10/09 07:53:22;;;;;;;21.20;13.35;;;;;;;5.49;100.00;102257.13;5268196;28;20157;-64
2022/10/09 07:55:53;;;;;;;20.48;13.73;;;;;;;5.53;100.00;102254.38;5258297;28;20707;-63
2022/10/09 07:58:25;;;;;;;23.45;14.90;;;;;;;5.52;100.00;102260.56;5272723;28;20464;-63
2022/10/09 08:01:02;;;;;;;23.88;15.00;;;;;;;5.60;100.00;102251.47;5257950;28;20041;-63
2022/10/09 08:03:34;;;;;;;22.50;14.77;;;;;;;5.71;100.00;102253.75;5254854;28;20032;-63
2022/10/09 08:06:06;;;;;;;21.55;15.10;;;;;;;5.71;100.00;102253.75;5260128;28;20025;-62
2022/10/09 08:08:37;;;;;;;22.58;15.45;;;;;;;5.78;100.00;102246.47;5256321;28;20059;-62
2022/10/09 08:11:13;;;;;;;21.70;14.25;;;;;;;5.83;100.00;102248.06;5262528;28;20054;-62
2022/10/09 08:13:46;;;;;;;22.33;15.38;;;;;;;5.93;100.00;102251.25;5258363;28;20033;-63
2022/10/09 08:16:19;;;;;;;23.27;14.98;;;;;;;6.04;100.00;102246.50;5248972;28;20047;-62
2022/10/09 08:18:56;;;;;;;21.73;14.27;;;;;;;6.06;100.00;102249.94;5260049;28;20486;-62
2022/10/09 08:21:27;;;;;;;20.45;14.13;;;;;;;6.17;100.00;102246.03;5258048;28;20052;-62
2022/10/09 08:23:59;;;;;;;22.90;15.45;;;;;;;6.30;100.00;102246.47;5259295;28;20123;-63
2022/10/09 08:26:30;;;;;;;20.92;14.27;;;;;;;6.34;100.00;102235.69;5261031;28;20447;-63
2022/10/09 08:29:04;;;;;;;25.23;15.15;;;;;;;6.36;100.00;102244.47;5254666;28;20035;-62
2022/10/09 08:31:35;;;;;;;20.93;14.37;;;;;;;6.42;100.00;102236.31;5254846;28;20507;-62
2022/10/09 08:34:06;;;;;;;22.30;14.20;;;;;;;6.58;100.00;102233.09;5269262;28;20777;-63
2022/10/09 08:36:37;;;;;;;19.88;15.10;;;;;;;6.59;100.00;102226.84;5257385;28;20543;-63
2022/10/09 08:39:09;;;;;;;19.92;14.57;;;;;;;6.62;100.00;102227.59;5253617;28;20376;-62
2022/10/09 08:41:53;;;;;;;22.95;15.35;;;;;;;6.85;100.00;102229.38;5258869;28;20028;-63
2022/10/09 08:44:28;;;;;;;22.73;16.02;;;;;;;6.79;100.00;102226.09;5255803;28;20044;-62
2022/10/09 08:47:11;;;;;;;22.98;15.55;;;;;;;7.00;100.00;102225.25;5256817;28;20525;-63
2022/10/09 08:49:55;;;;;;;24.23;16.08;;;;;;;6.94;100.00;102220.19;5255867;28;20771;-63
2022/10/09 08:52:40;;;;;;;26.20;16.15;;;;;;;6.98;100.00;102219.16;5265085;28;20118;-63
2022/10/09 08:55:18;;;;;;;22.63;14.85;;;;;;;7.19;100.00;102212.13;5265197;28;20020;-63
2022/10/09 08:57:53;;;;;;;25.63;15.55;;;;;;;7.23;100.00;102213.72;5260325;28;20070;-62
2022/10/09 09:00:32;;;;;;;18.40;13.38;;;;;;;7.36;100.00;102207.91;5257360;28;20041;-62
2022/10/09 09:03:41;;;;;;;22.83;13.43;;;;;;;7.40;100.00;102209.50;5258060;28;20036;-62
2022/10/09 09:06:45;;;;;;;22.60;13.05;;;;;;;7.50;100.00;102199.34;5258862;28;20028;-63
2022/10/09 09:09:29;;;;;;;19.20;13.27;;;;;;;7.72;100.00;102204.66;5259016;28;20033;-63
2022/10/09 09:12:20;;;;;;;18.90;13.52;;;;;;;7.78;100.00;102193.75;5259252;28;20066;-63
2022/10/09 09:14:58;;;;;;;20.50;12.88;;;;;;;8.04;100.00;102195.28;5263715;28;20027;-65
2022/10/09 09:17:53;;;;;;;21.30;13.13;;;;;;;7.96;100.00;102192.97;5261378;28;20062;-63
2022/10/09 09:20:46;;;;;;;19.15;11.25;;;;;;;8.20;100.00;102184.81;5272083;28;20028;-63
2022/10/09 09:23:21;;;;;;;19.25;11.45;;;;;;;8.33;100.00;102188.66;5260402;28;20037;-62
2022/10/09 09:25:53;;;;;;;14.45;10.57;;;;;;;8.24;100.00;102181.94;5258752;28;20210;-63
2022/10/09 09:28:33;;;;;;;20.70;11.43;;;;;;;8.50;100.00;102181.75;5268160;28;20089;-62
2022/10/09 09:31:15;;;;;;;17.17;9.90;;;;;;;8.54;100.00;102175.34;5271169;28;20043;-63
2022/10/09 09:34:10;;;;;;;15.15;9.57;;;;;;;8.76;100.00;102165.41;5269321;28;20052;-63
2022/10/09 09:36:53;;;;;;;17.30;9.93;;;;;;;8.87;100.00;102159.56;5259241;28;20037;-63
2022/10/09 09:39:28;;;;;;;15.07;9.07;;;;;;;9.06;100.00;102154.22;5270263;28;20047;-63
2022/10/09 09:42:12;;;;;;;16.15;10.15;;;;;;;9.17;100.00;102153.69;5273600;28;20024;-63
2022/10/09 09:44:49;;;;;;;13.32;9.02;;;;;;;9.23;100.00;102150.72;5265737;28;20046;-63
2022/10/09 09:47:28;;;;;;;13.27;8.55;;;;;;;9.38;100.00;102154.41;5259366;28;20037;-63
2022/10/09 09:50:04;;;;;;;14.32;8.05;;;;;;;9.57;100.00;102146.34;5268556;28;20378;-63
2022/10/09 09:52:41;;;;;;;13.93;7.90;;;;;;;9.55;100.00;102134.88;5258223;28;20033;-63
2022/10/09 09:55:29;;;;;;;13.63;7.53;;;;;;;9.74;100.00;102137.47;5270833;28;20526;-63
2022/10/09 09:58:07;;;;;;;9.90;6.88;;;;;;;9.87;100.00;102133.22;5267130;28;20028;-63
2022/10/09 10:00:38;;;;;;;12.52;7.30;;;;;;;9.84;100.00;102136.06;5261710;28;20033;-63
2022/10/09 10:03:13;;;;;;;11.05;6.68;;;;;;;10.02;100.00;102126.22;5264514;28;20406;-63
2022/10/09 10:05:44;;;;;;;13.15;6.82;;;;;;;10.28;100.00;102123.91;5262671;28;20074;-63
2022/10/09 10:08:32;;;;;;;11.20;6.75;;;;;;;10.44;100.00;102130.19;5264967;28;20462;-63
2022/10/09 10:11:07;;;;;;;10.20;6.07;;;;;;;10.54;100.00;102119.84;5269200;28;20036;-63
2022/10/09 10:13:44;;;;;;;;;;;;;;;10.44;100.00;102118.66;5270914;28;20035;-64
2022/10/09 10:16:23;;;;;;;11.88;6.35;;;;;;;10.62;100.00;102116.75;5266583;28;19920;-63
2022/10/09 10:18:56;;;;;;;11.18;6.40;;;;;;;10.76;100.00;102115.03;5259864;28;20029;-63
2022/10/09 10:21:39;;;;;;;8.33;5.90;;;;;;;10.75;100.00;102115.97;5264540;28;20036;-64
2022/10/09 10:24:17;;;;;;;8.15;5.28;;;;;;;10.97;100.00;102101.41;5269583;28;20303;-64
2022/10/09 10:26:55;;;;;;;11.32;5.38;;;;;;;11.00;100.00;102101.22;5268584;28;20582;-63
2022/10/09 10:29:34;;;;;;;10.38;5.63;;;;;;;11.04;100.00;102101.91;5264166;28;20044;-63
2022/10/09 10:32:19;;;;;;;8.70;5.10;;;;;;;11.14;100.00;102103.06;5259583;28;20087;-63
2022/10/09 10:35:08;;;;;;;10.45;5.57;;;;;;;11.22;100.00;102094.59;5261909;28;20028;-64
2022/10/09 10:37:52;;;;;;;10.57;5.10;;;;;;;11.32;100.00;102090.44;5267688;28;20037;-63
2022/10/09 10:40:35;;;;;;;10.93;3.92;;;;;;;11.34;100.00;102080.53;5265674;28;20158;-64
2022/10/09 10:43:09;;;;;;;11.20;5.47;;;;;;;11.42;100.00;102083.59;5262070;28;20128;-64
2022/10/09 10:45:52;;;;;;;11.15;5.20;;;;;;;11.37;100.00;102080.31;5270691;28;20025;-64
2022/10/09 10:48:28;;;;;;;8.63;4.20;;;;;;;11.50;100.00;102078.63;5264986;28;20045;-64
2022/10/09 10:51:30;;;;;;;10.32;4.97;;;;;;;11.55;100.00;102059.66;5262024;28;20313;-64
2022/10/09 10:54:07;;;;;;;8.25;3.35;;;;;;;11.63;100.00;102068.06;5264869;28;20061;-64
2022/10/09 10:56:45;;;;;;;8.30;3.67;;;;;;;11.76;100.00;102068.19;5261601;28;20062;-64
2022/10/09 10:59:52;;;;;;;8.70;3.13;;;;;;;11.72;100.00;102056.81;5254469;28;20489;-64
2022/10/09 11:03:02;;;;;;;9.32;3.42;;;;;;;11.83;100.00;102055.28;5256370;28;20059;-64
2022/10/09 11:05:55;;;;;;;6.88;3.35;;;;;;;11.86;100.00;102050.59;5255655;28;20421;-63
2022/10/09 11:08:43;;;;;;;9.65;3.92;;;;;;;11.75;100.00;102048.59;5260827;28;20032;-64
2022/10/09 11:11:14;;;;;;;9.90;3.63;;;;;;;12.11;100.00;102041.91;5260283;28;20039;-64
2022/10/09 11:13:55;;;;;;;7.50;3.72;;;;;;;11.98;100.00;102048.13;5257305;28;20487;-64
2022/10/09 11:16:47;;;;;;;6.30;3.42;;;;;;;11.94;100.00;102037.63;5256706;28;20033;-64
2022/10/09 11:19:37;;;;;;;7.10;3.40;;;;;;;12.11;100.00;102038.38;5260311;28;21103;-64
2022/10/09 11:22:33;;;;;;;7.10;3.40;;;;;;;12.25;97.37;102042.84;5255300;28;20573;-64
2022/10/09 11:25:36;;;;;;;8.82;3.83;;;;;;;12.30;99.89;102030.88;5254422;28;20040;-64
2022/10/09 11:28:14;;;;;;;7.97;3.42;;;;;;;12.29;98.52;102025.63;5251511;28;20025;-64
2022/10/09 11:31:13;;;;;;;8.02;3.28;;;;;;;12.49;99.35;102019.84;5256432;28;20031;-64
2022/10/09 11:33:49;;;;;;;6.97;3.10;;;;;;;12.52;99.44;102024.13;5262906;28;20051;-64
2022/10/09 11:36:38;;;;;;;9.18;3.90;;;;;;;12.63;96.15;102026.94;5263493;28;20102;-65
2022/10/09 11:39:15;;;;;;;8.15;4.05;;;;;;;12.63;95.47;102015.38;5260868;28;20066;-64
2022/10/09 11:41:48;;;;;;;8.45;3.95;;;;;;;12.63;94.95;102015.38;5248014;28;20028;-64
2022/10/09 11:44:45;;;;;;;7.30;3.63;;;;;;;12.63;97.42;102004.69;5266053;28;20071;-65
2022/10/09 11:47:35;;;;;;;9.82;4.00;;;;;;;12.83;97.69;102003.31;5264375;28;20040;-65
2022/10/09 11:50:28;;;;;;;8.50;3.40;;;;;;;12.90;96.21;102005.47;5265825;28;20063;-65
2022/10/09 11:53:07;;;;;;;8.55;3.28;;;;;;;12.97;95.16;101991.69;5269165;28;20103;-65
2022/10/09 11:55:39;;;;;;;7.80;3.10;;;;;;;13.12;95.87;101990.66;5266498;28;20036;-65